sensor_id;sensor_type;location;lat;lon;timestamp;temperature;humidity
7700;DHT22;3892;47.794;19.126;2023-05-24T00:00:29;24.80;49.50
7700;DHT22;3892;47.794;19.126;2023-05-24T00:02:58;24.80;49.50
7700;DHT22;3892;47.794;19.126;2023-05-24T00:05:26;24.80;49.50
7700;DHT22;3892;47.794;19.126;2023-05-24T00:07:56;24.80;49.50
7700;DHT22;3892;47.794;19.126;2023-05-24T00:10:25;24.80;49.50
7700;DHT22;3892;47.794;19.126;2023-05-24T00:12:55;24.80;49.50
7700;DHT22;3892;47.794;19.126;2023-05-24T00:15:23;24.80;49.60
7700;DHT22;3892;47.794;19.126;2023-05-24T00:17:51;24.80;49.50
7700;DHT22;3892;47.794;19.126;2023-05-24T00:20:19;24.90;49.60
7700;DHT22;3892;47.794;19.126;2023-05-24T00:22:48;24.90;49.60
7700;DHT22;3892;47.794;19.126;2023-05-24T00:25:16;24.80;49.40
7700;DHT22;3892;47.794;19.126;2023-05-24T00:27:44;24.80;49.30
7700;DHT22;3892;47.794;19.126;2023-05-24T00:30:13;24.90;49.40
7700;DHT22;3892;47.794;19.126;2023-05-24T00:32:41;24.80;49.20
7700;DHT22;3892;47.794;19.126;2023-05-24T00:35:10;24.80;49.20
7700;DHT22;3892;47.794;19.126;2023-05-24T00:37:38;24.80;49.20
7700;DHT22;3892;47.794;19.126;2023-05-24T00:40:11;24.80;49.20
7700;DHT22;3892;47.794;19.126;2023-05-24T00:42:39;24.80;49.20
7700;DHT22;3892;47.794;19.126;2023-05-24T00:45:08;24.80;49.20
7700;DHT22;3892;47.794;19.126;2023-05-24T00:47:38;24.80;49.20
7700;DHT22;3892;47.794;19.126;2023-05-24T00:50:07;24.80;49.20
7700;DHT22;3892;47.794;19.126;2023-05-24T00:52:37;24.80;49.30
7700;DHT22;3892;47.794;19.126;2023-05-24T00:55:07;24.80;49.30
7700;DHT22;3892;47.794;19.126;2023-05-24T00:57:35;24.70;49.30
7700;DHT22;3892;47.794;19.126;2023-05-24T01:00:05;24.70;49.30
7700;DHT22;3892;47.794;19.126;2023-05-24T01:02:34;24.70;49.30
7700;DHT22;3892;47.794;19.126;2023-05-24T01:05:06;24.80;49.40
7700;DHT22;3892;47.794;19.126;2023-05-24T01:07:40;24.80;49.40
7700;DHT22;3892;47.794;19.126;2023-05-24T01:10:17;24.80;49.40
7700;DHT22;3892;47.794;19.126;2023-05-24T01:12:55;24.70;49.40
7700;DHT22;3892;47.794;19.126;2023-05-24T01:15:30;24.80;49.50
7700;DHT22;3892;47.794;19.126;2023-05-24T01:18:04;24.80;49.60
7700;DHT22;3892;47.794;19.126;2023-05-24T01:20:35;24.80;49.60
7700;DHT22;3892;47.794;19.126;2023-05-24T01:23:13;24.70;49.50
7700;DHT22;3892;47.794;19.126;2023-05-24T01:25:48;24.70;49.40
7700;DHT22;3892;47.794;19.126;2023-05-24T01:28:21;24.80;49.50
7700;DHT22;3892;47.794;19.126;2023-05-24T01:30:50;24.80;49.50
7700;DHT22;3892;47.794;19.126;2023-05-24T01:33:19;24.80;49.50
7700;DHT22;3892;47.794;19.126;2023-05-24T01:35:47;24.70;49.50
7700;DHT22;3892;47.794;19.126;2023-05-24T01:38:15;24.70;49.50
7700;DHT22;3892;47.794;19.126;2023-05-24T01:40:46;24.70;49.50
7700;DHT22;3892;47.794;19.126;2023-05-24T01:43:24;24.70;49.50
7700;DHT22;3892;47.794;19.126;2023-05-24T01:46:02;24.70;49.50
7700;DHT22;3892;47.794;19.126;2023-05-24T01:48:38;24.70;49.50
7700;DHT22;3892;47.794;19.126;2023-05-24T01:51:17;24.70;49.60
7700;DHT22;3892;47.794;19.126;2023-05-24T01:53:47;24.60;49.50
7700;DHT22;3892;47.794;19.126;2023-05-24T01:56:18;24.70;49.70
7700;DHT22;3892;47.794;19.126;2023-05-24T01:58:49;24.60;49.70
7700;DHT22;3892;47.794;19.126;2023-05-24T02:01:19;24.60;49.70
7700;DHT22;3892;47.794;19.126;2023-05-24T02:03:47;24.60;49.80
7700;DHT22;3892;47.794;19.126;2023-05-24T02:06:16;24.60;49.80
7700;DHT22;3892;47.794;19.126;2023-05-24T02:08:44;24.60;49.90
7700;DHT22;3892;47.794;19.126;2023-05-24T02:11:13;24.60;49.90
7700;DHT22;3892;47.794;19.126;2023-05-24T02:13:41;24.50;49.90
7700;DHT22;3892;47.794;19.126;2023-05-24T02:16:10;24.60;50.10
7700;DHT22;3892;47.794;19.126;2023-05-24T02:18:39;24.60;50.20
7700;DHT22;3892;47.794;19.126;2023-05-24T02:21:10;24.60;50.20
7700;DHT22;3892;47.794;19.126;2023-05-24T02:23:38;24.60;50.20
7700;DHT22;3892;47.794;19.126;2023-05-24T02:26:06;24.50;50.20
7700;DHT22;3892;47.794;19.126;2023-05-24T02:28:37;24.60;50.20
7700;DHT22;3892;47.794;19.126;2023-05-24T02:31:05;24.60;50.20
7700;DHT22;3892;47.794;19.126;2023-05-24T02:33:35;24.60;50.30
7700;DHT22;3892;47.794;19.126;2023-05-24T02:36:03;24.60;50.20
7700;DHT22;3892;47.794;19.126;2023-05-24T02:38:32;24.60;50.20
7700;DHT22;3892;47.794;19.126;2023-05-24T02:41:00;24.60;50.30
7700;DHT22;3892;47.794;19.126;2023-05-24T02:43:28;24.60;50.20
7700;DHT22;3892;47.794;19.126;2023-05-24T02:45:56;24.60;50.20
7700;DHT22;3892;47.794;19.126;2023-05-24T02:48:24;24.60;50.30
7700;DHT22;3892;47.794;19.126;2023-05-24T02:50:53;24.60;50.30
7700;DHT22;3892;47.794;19.126;2023-05-24T02:53:21;24.60;51.00
7700;DHT22;3892;47.794;19.126;2023-05-24T02:55:49;24.60;50.40
7700;DHT22;3892;47.794;19.126;2023-05-24T02:58:18;24.60;50.40
7700;DHT22;3892;47.794;19.126;2023-05-24T03:00:46;24.60;50.40
7700;DHT22;3892;47.794;19.126;2023-05-24T03:03:14;24.50;50.40
7700;DHT22;3892;47.794;19.126;2023-05-24T03:05:42;24.50;50.60
7700;DHT22;3892;47.794;19.126;2023-05-24T03:08:11;24.40;50.60
7700;DHT22;3892;47.794;19.126;2023-05-24T03:10:39;24.40;50.60
7700;DHT22;3892;47.794;19.126;2023-05-24T03:13:08;24.40;50.50
7700;DHT22;3892;47.794;19.126;2023-05-24T03:15:36;24.40;50.70
7700;DHT22;3892;47.794;19.126;2023-05-24T03:18:04;24.40;50.60
7700;DHT22;3892;47.794;19.126;2023-05-24T03:20:32;24.40;50.60
7700;DHT22;3892;47.794;19.126;2023-05-24T03:23:00;24.40;50.70
7700;DHT22;3892;47.794;19.126;2023-05-24T03:25:30;24.40;50.60
7700;DHT22;3892;47.794;19.126;2023-05-24T03:27:58;24.40;50.60
7700;DHT22;3892;47.794;19.126;2023-05-24T03:30:26;24.40;50.70
7700;DHT22;3892;47.794;19.126;2023-05-24T03:32:54;24.40;50.70
7700;DHT22;3892;47.794;19.126;2023-05-24T03:35:23;24.40;50.80
7700;DHT22;3892;47.794;19.126;2023-05-24T03:37:51;24.30;50.90
7700;DHT22;3892;47.794;19.126;2023-05-24T03:40:19;24.30;50.90
7700;DHT22;3892;47.794;19.126;2023-05-24T03:42:49;24.30;51.00
7700;DHT22;3892;47.794;19.126;2023-05-24T03:45:17;24.20;51.00
7700;DHT22;3892;47.794;19.126;2023-05-24T03:47:49;24.20;51.00
7700;DHT22;3892;47.794;19.126;2023-05-24T03:50:18;24.30;51.10
7700;DHT22;3892;47.794;19.126;2023-05-24T03:52:46;24.20;50.90
7700;DHT22;3892;47.794;19.126;2023-05-24T03:55:14;24.20;50.90
7700;DHT22;3892;47.794;19.126;2023-05-24T03:57:42;24.20;50.90
7700;DHT22;3892;47.794;19.126;2023-05-24T04:00:12;24.20;50.90
7700;DHT22;3892;47.794;19.126;2023-05-24T04:02:41;24.20;50.90
7700;DHT22;3892;47.794;19.126;2023-05-24T04:05:09;24.20;50.90
7700;DHT22;3892;47.794;19.126;2023-05-24T04:07:38;24.30;51.00
7700;DHT22;3892;47.794;19.126;2023-05-24T04:10:07;24.30;51.00
7700;DHT22;3892;47.794;19.126;2023-05-24T04:12:35;24.30;50.90
7700;DHT22;3892;47.794;19.126;2023-05-24T04:15:04;24.40;50.90
7700;DHT22;3892;47.794;19.126;2023-05-24T04:17:34;24.30;51.00
7700;DHT22;3892;47.794;19.126;2023-05-24T04:20:03;24.30;50.90
7700;DHT22;3892;47.794;19.126;2023-05-24T04:22:31;24.30;51.00
7700;DHT22;3892;47.794;19.126;2023-05-24T04:25:01;24.30;50.90
7700;DHT22;3892;47.794;19.126;2023-05-24T04:27:29;24.30;50.90
7700;DHT22;3892;47.794;19.126;2023-05-24T04:29:58;24.30;51.00
7700;DHT22;3892;47.794;19.126;2023-05-24T04:32:26;24.30;50.60
7700;DHT22;3892;47.794;19.126;2023-05-24T04:34:57;24.30;50.90
7700;DHT22;3892;47.794;19.126;2023-05-24T04:37:25;24.30;50.80
7700;DHT22;3892;47.794;19.126;2023-05-24T04:39:55;24.30;51.00
7700;DHT22;3892;47.794;19.126;2023-05-24T04:42:23;24.30;51.20
7700;DHT22;3892;47.794;19.126;2023-05-24T04:44:51;24.20;51.30
7700;DHT22;3892;47.794;19.126;2023-05-24T04:47:20;24.20;51.30
7700;DHT22;3892;47.794;19.126;2023-05-24T04:49:48;24.30;51.30
7700;DHT22;3892;47.794;19.126;2023-05-24T04:52:17;24.40;51.20
7700;DHT22;3892;47.794;19.126;2023-05-24T04:54:46;24.40;51.00
7700;DHT22;3892;47.794;19.126;2023-05-24T04:57:15;24.40;51.10
7700;DHT22;3892;47.794;19.126;2023-05-24T04:59:43;24.40;51.10
7700;DHT22;3892;47.794;19.126;2023-05-24T05:02:11;24.50;51.60
7700;DHT22;3892;47.794;19.126;2023-05-24T05:04:39;24.40;50.90
7700;DHT22;3892;47.794;19.126;2023-05-24T05:07:08;24.40;50.60
7700;DHT22;3892;47.794;19.126;2023-05-24T05:09:37;24.50;50.80
7700;DHT22;3892;47.794;19.126;2023-05-24T05:12:05;24.40;50.70
7700;DHT22;3892;47.794;19.126;2023-05-24T05:14:34;24.50;50.80
7700;DHT22;3892;47.794;19.126;2023-05-24T05:17:02;24.40;50.60
7700;DHT22;3892;47.794;19.126;2023-05-24T05:19:30;24.40;50.80
7700;DHT22;3892;47.794;19.126;2023-05-24T05:21:58;24.40;50.70
7700;DHT22;3892;47.794;19.126;2023-05-24T05:24:26;24.40;50.60
7700;DHT22;3892;47.794;19.126;2023-05-24T05:26:56;24.40;50.60
7700;DHT22;3892;47.794;19.126;2023-05-24T05:29:24;24.40;50.60
7700;DHT22;3892;47.794;19.126;2023-05-24T05:31:52;24.40;50.40
7700;DHT22;3892;47.794;19.126;2023-05-24T05:34:21;24.40;50.50
7700;DHT22;3892;47.794;19.126;2023-05-24T05:36:49;24.50;50.70
7700;DHT22;3892;47.794;19.126;2023-05-24T05:39:17;24.40;50.60
7700;DHT22;3892;47.794;19.126;2023-05-24T05:41:45;24.40;50.60
7700;DHT22;3892;47.794;19.126;2023-05-24T05:44:15;24.50;50.70
7700;DHT22;3892;47.794;19.126;2023-05-24T05:46:43;24.50;50.70
7700;DHT22;3892;47.794;19.126;2023-05-24T05:49:12;24.50;50.60
7700;DHT22;3892;47.794;19.126;2023-05-24T05:51:41;24.50;50.40
7700;DHT22;3892;47.794;19.126;2023-05-24T05:54:09;24.50;50.40
7700;DHT22;3892;47.794;19.126;2023-05-24T05:56:42;24.50;50.40
7700;DHT22;3892;47.794;19.126;2023-05-24T05:59:15;24.50;50.40
7700;DHT22;3892;47.794;19.126;2023-05-24T06:01:43;24.50;50.30
7700;DHT22;3892;47.794;19.126;2023-05-24T06:04:13;24.50;50.50
7700;DHT22;3892;47.794;19.126;2023-05-24T06:06:41;24.60;50.80
7700;DHT22;3892;47.794;19.126;2023-05-24T06:09:11;24.70;50.50
7700;DHT22;3892;47.794;19.126;2023-05-24T06:11:39;24.50;50.20
7700;DHT22;3892;47.794;19.126;2023-05-24T06:14:10;24.60;50.30
7700;DHT22;3892;47.794;19.126;2023-05-24T06:16:40;24.60;50.10
7700;DHT22;3892;47.794;19.126;2023-05-24T06:19:09;24.60;50.30
7700;DHT22;3892;47.794;19.126;2023-05-24T06:21:37;24.70;50.10
7700;DHT22;3892;47.794;19.126;2023-05-24T06:24:06;24.70;50.10
7700;DHT22;3892;47.794;19.126;2023-05-24T06:26:35;24.80;49.90
7700;DHT22;3892;47.794;19.126;2023-05-24T06:29:03;24.80;50.00
7700;DHT22;3892;47.794;19.126;2023-05-24T06:31:32;24.70;50.00
7700;DHT22;3892;47.794;19.126;2023-05-24T06:34:02;24.70;49.90
7700;DHT22;3892;47.794;19.126;2023-05-24T06:36:30;24.80;50.00
7700;DHT22;3892;47.794;19.126;2023-05-24T06:39:01;24.80;49.70
7700;DHT22;3892;47.794;19.126;2023-05-24T06:41:29;24.80;49.90
7700;DHT22;3892;47.794;19.126;2023-05-24T06:43:57;24.90;50.00
7700;DHT22;3892;47.794;19.126;2023-05-24T06:46:26;24.90;50.20
7700;DHT22;3892;47.794;19.126;2023-05-24T06:48:54;24.90;50.10
7700;DHT22;3892;47.794;19.126;2023-05-24T06:51:23;24.90;50.30
7700;DHT22;3892;47.794;19.126;2023-05-24T06:53:51;25.00;50.30
7700;DHT22;3892;47.794;19.126;2023-05-24T06:56:19;24.90;50.30
7700;DHT22;3892;47.794;19.126;2023-05-24T06:58:48;24.90;50.20
7700;DHT22;3892;47.794;19.126;2023-05-24T07:01:17;24.90;49.90
7700;DHT22;3892;47.794;19.126;2023-05-24T07:03:45;25.00;50.00
7700;DHT22;3892;47.794;19.126;2023-05-24T07:06:13;24.90;50.40
7700;DHT22;3892;47.794;19.126;2023-05-24T07:08:43;24.90;50.20
7700;DHT22;3892;47.794;19.126;2023-05-24T07:11:11;25.00;50.40
7700;DHT22;3892;47.794;19.126;2023-05-24T07:13:39;25.00;50.30
7700;DHT22;3892;47.794;19.126;2023-05-24T07:16:07;25.00;50.60
7700;DHT22;3892;47.794;19.126;2023-05-24T07:18:35;25.00;50.30
7700;DHT22;3892;47.794;19.126;2023-05-24T07:21:03;25.00;50.80
7700;DHT22;3892;47.794;19.126;2023-05-24T07:23:32;25.00;50.40
7700;DHT22;3892;47.794;19.126;2023-05-24T07:26:02;25.10;50.60
7700;DHT22;3892;47.794;19.126;2023-05-24T07:28:31;25.00;50.70
7700;DHT22;3892;47.794;19.126;2023-05-24T07:31:00;25.00;50.40
7700;DHT22;3892;47.794;19.126;2023-05-24T07:33:28;25.10;51.10
7700;DHT22;3892;47.794;19.126;2023-05-24T07:35:57;25.00;50.80
7700;DHT22;3892;47.794;19.126;2023-05-24T07:38:25;25.00;50.50
7700;DHT22;3892;47.794;19.126;2023-05-24T07:40:54;25.10;50.60
7700;DHT22;3892;47.794;19.126;2023-05-24T07:43:24;25.10;50.30
7700;DHT22;3892;47.794;19.126;2023-05-24T07:45:53;25.20;49.80
7700;DHT22;3892;47.794;19.126;2023-05-24T07:48:22;25.40;50.00
7700;DHT22;3892;47.794;19.126;2023-05-24T07:50:50;25.40;49.40
7700;DHT22;3892;47.794;19.126;2023-05-24T07:53:18;25.50;49.00
7700;DHT22;3892;47.794;19.126;2023-05-24T07:55:48;25.50;48.70
7700;DHT22;3892;47.794;19.126;2023-05-24T07:58:17;25.40;48.80
7700;DHT22;3892;47.794;19.126;2023-05-24T08:00:46;25.50;49.00
7700;DHT22;3892;47.794;19.126;2023-05-24T08:03:14;25.50;48.90
7700;DHT22;3892;47.794;19.126;2023-05-24T08:05:43;25.60;49.20
7700;DHT22;3892;47.794;19.126;2023-05-24T08:08:11;25.60;48.60
7700;DHT22;3892;47.794;19.126;2023-05-24T08:10:40;25.70;48.10
7700;DHT22;3892;47.794;19.126;2023-05-24T08:13:08;25.70;47.80
7700;DHT22;3892;47.794;19.126;2023-05-24T08:15:36;25.70;48.20
7700;DHT22;3892;47.794;19.126;2023-05-24T08:18:06;25.80;48.20
7700;DHT22;3892;47.794;19.126;2023-05-24T08:20:35;25.90;48.20
7700;DHT22;3892;47.794;19.126;2023-05-24T08:23:03;25.90;48.50
7700;DHT22;3892;47.794;19.126;2023-05-24T08:25:31;25.90;48.80
7700;DHT22;3892;47.794;19.126;2023-05-24T08:27:59;25.90;48.90
7700;DHT22;3892;47.794;19.126;2023-05-24T08:30:28;25.80;48.90
7700;DHT22;3892;47.794;19.126;2023-05-24T08:32:56;25.80;49.00
7700;DHT22;3892;47.794;19.126;2023-05-24T08:35:26;25.80;48.80
7700;DHT22;3892;47.794;19.126;2023-05-24T08:37:54;25.70;48.80
7700;DHT22;3892;47.794;19.126;2023-05-24T08:40:23;25.70;48.90
7700;DHT22;3892;47.794;19.126;2023-05-24T08:42:52;25.70;48.80
7700;DHT22;3892;47.794;19.126;2023-05-24T08:45:21;25.70;49.00
7700;DHT22;3892;47.794;19.126;2023-05-24T08:47:49;25.70;49.10
7700;DHT22;3892;47.794;19.126;2023-05-24T08:50:18;25.70;49.00
7700;DHT22;3892;47.794;19.126;2023-05-24T08:52:48;25.80;49.10
7700;DHT22;3892;47.794;19.126;2023-05-24T08:55:18;25.80;49.00
7700;DHT22;3892;47.794;19.126;2023-05-24T08:57:47;25.80;48.80
7700;DHT22;3892;47.794;19.126;2023-05-24T09:00:16;25.90;49.30
7700;DHT22;3892;47.794;19.126;2023-05-24T09:02:45;25.90;48.90
7700;DHT22;3892;47.794;19.126;2023-05-24T09:05:14;25.90;48.80
7700;DHT22;3892;47.794;19.126;2023-05-24T09:07:44;25.80;48.60
7700;DHT22;3892;47.794;19.126;2023-05-24T09:10:14;25.90;48.70
7700;DHT22;3892;47.794;19.126;2023-05-24T09:12:44;26.00;48.60
7700;DHT22;3892;47.794;19.126;2023-05-24T09:15:14;26.00;48.60
7700;DHT22;3892;47.794;19.126;2023-05-24T09:17:42;26.10;48.60
7700;DHT22;3892;47.794;19.126;2023-05-24T09:20:12;26.20;48.80
7700;DHT22;3892;47.794;19.126;2023-05-24T09:22:41;26.30;48.70
7700;DHT22;3892;47.794;19.126;2023-05-24T09:25:12;26.30;48.40
7700;DHT22;3892;47.794;19.126;2023-05-24T09:27:47;26.40;47.90
7700;DHT22;3892;47.794;19.126;2023-05-24T09:30:15;26.50;47.60
7700;DHT22;3892;47.794;19.126;2023-05-24T09:32:54;26.60;47.60
7700;DHT22;3892;47.794;19.126;2023-05-24T09:35:23;26.70;47.50
7700;DHT22;3892;47.794;19.126;2023-05-24T09:37:53;26.70;47.50
7700;DHT22;3892;47.794;19.126;2023-05-24T09:40:23;26.80;47.00
7700;DHT22;3892;47.794;19.126;2023-05-24T09:43:03;26.90;46.90
7700;DHT22;3892;47.794;19.126;2023-05-24T09:45:32;27.00;47.10
7700;DHT22;3892;47.794;19.126;2023-05-24T09:48:02;27.10;46.70
7700;DHT22;3892;47.794;19.126;2023-05-24T09:50:31;27.10;46.10
7700;DHT22;3892;47.794;19.126;2023-05-24T09:52:59;27.30;47.10
7700;DHT22;3892;47.794;19.126;2023-05-24T09:55:29;27.30;47.00
7700;DHT22;3892;47.794;19.126;2023-05-24T09:58:03;27.30;46.80
7700;DHT22;3892;47.794;19.126;2023-05-24T10:00:33;27.30;46.50
7700;DHT22;3892;47.794;19.126;2023-05-24T10:03:03;27.40;46.10
7700;DHT22;3892;47.794;19.126;2023-05-24T10:05:33;27.40;46.20
7700;DHT22;3892;47.794;19.126;2023-05-24T10:08:02;27.50;46.90
7700;DHT22;3892;47.794;19.126;2023-05-24T10:10:32;27.60;47.60
7700;DHT22;3892;47.794;19.126;2023-05-24T10:13:02;27.70;47.50
7700;DHT22;3892;47.794;19.126;2023-05-24T10:15:30;27.80;46.20
7700;DHT22;3892;47.794;19.126;2023-05-24T10:17:58;27.90;45.50
7700;DHT22;3892;47.794;19.126;2023-05-24T10:20:27;27.90;44.90
7700;DHT22;3892;47.794;19.126;2023-05-24T10:22:58;27.80;44.70
7700;DHT22;3892;47.794;19.126;2023-05-24T10:25:28;27.90;45.00
7700;DHT22;3892;47.794;19.126;2023-05-24T10:27:57;27.90;45.00
7700;DHT22;3892;47.794;19.126;2023-05-24T10:30:33;28.00;44.40
7700;DHT22;3892;47.794;19.126;2023-05-24T10:33:05;28.20;45.30
7700;DHT22;3892;47.794;19.126;2023-05-24T10:35:35;28.30;44.30
7700;DHT22;3892;47.794;19.126;2023-05-24T10:38:05;28.40;44.00
7700;DHT22;3892;47.794;19.126;2023-05-24T10:40:34;28.40;44.10
7700;DHT22;3892;47.794;19.126;2023-05-24T10:43:07;28.40;43.60
7700;DHT22;3892;47.794;19.126;2023-05-24T10:45:38;28.40;44.30
7700;DHT22;3892;47.794;19.126;2023-05-24T10:50:51;28.20;43.20
7700;DHT22;3892;47.794;19.126;2023-05-24T10:53:21;28.20;43.50
7700;DHT22;3892;47.794;19.126;2023-05-24T10:55:54;28.20;43.80
7700;DHT22;3892;47.794;19.126;2023-05-24T10:58:27;28.20;43.60
7700;DHT22;3892;47.794;19.126;2023-05-24T11:00:57;28.30;44.30
7700;DHT22;3892;47.794;19.126;2023-05-24T11:03:31;28.30;43.70
7700;DHT22;3892;47.794;19.126;2023-05-24T11:06:00;28.40;43.00
7700;DHT22;3892;47.794;19.126;2023-05-24T11:08:30;28.50;43.40
7700;DHT22;3892;47.794;19.126;2023-05-24T11:11:05;28.60;43.60
7700;DHT22;3892;47.794;19.126;2023-05-24T11:13:46;28.70;42.70
7700;DHT22;3892;47.794;19.126;2023-05-24T11:16:35;28.80;43.00
7700;DHT22;3892;47.794;19.126;2023-05-24T11:19:11;28.90;42.30
7700;DHT22;3892;47.794;19.126;2023-05-24T11:21:40;29.00;42.40
7700;DHT22;3892;47.794;19.126;2023-05-24T11:24:10;29.00;42.80
7700;DHT22;3892;47.794;19.126;2023-05-24T11:26:38;29.10;43.20
7700;DHT22;3892;47.794;19.126;2023-05-24T11:29:06;29.30;43.40
7700;DHT22;3892;47.794;19.126;2023-05-24T11:31:36;29.30;43.00
7700;DHT22;3892;47.794;19.126;2023-05-24T11:34:09;29.40;42.70
7700;DHT22;3892;47.794;19.126;2023-05-24T11:36:37;29.40;42.40
7700;DHT22;3892;47.794;19.126;2023-05-24T11:39:07;29.50;43.50
7700;DHT22;3892;47.794;19.126;2023-05-24T11:41:36;29.60;42.40
7700;DHT22;3892;47.794;19.126;2023-05-24T11:44:06;29.70;41.60
7700;DHT22;3892;47.794;19.126;2023-05-24T11:46:37;29.70;42.20
7700;DHT22;3892;47.794;19.126;2023-05-24T11:49:11;29.80;43.50
7700;DHT22;3892;47.794;19.126;2023-05-24T11:51:40;29.90;43.90
7700;DHT22;3892;47.794;19.126;2023-05-24T11:54:08;29.80;44.20
7700;DHT22;3892;47.794;19.126;2023-05-24T11:56:37;29.80;43.70
7700;DHT22;3892;47.794;19.126;2023-05-24T11:59:13;29.80;43.80
7700;DHT22;3892;47.794;19.126;2023-05-24T12:01:43;29.80;43.90
7700;DHT22;3892;47.794;19.126;2023-05-24T12:04:11;29.70;43.30
7700;DHT22;3892;47.794;19.126;2023-05-24T12:06:41;29.70;43.80
7700;DHT22;3892;47.794;19.126;2023-05-24T12:09:10;29.70;44.10
7700;DHT22;3892;47.794;19.126;2023-05-24T12:11:40;29.60;43.10
7700;DHT22;3892;47.794;19.126;2023-05-24T12:14:11;29.60;42.70
7700;DHT22;3892;47.794;19.126;2023-05-24T12:16:42;29.50;43.00
7700;DHT22;3892;47.794;19.126;2023-05-24T12:19:17;29.60;43.20
7700;DHT22;3892;47.794;19.126;2023-05-24T12:21:57;29.70;43.50
7700;DHT22;3892;47.794;19.126;2023-05-24T12:24:26;29.60;43.10
7700;DHT22;3892;47.794;19.126;2023-05-24T12:26:58;29.60;41.60
7700;DHT22;3892;47.794;19.126;2023-05-24T12:29:31;29.50;41.20
7700;DHT22;3892;47.794;19.126;2023-05-24T12:32:02;29.60;41.90
7700;DHT22;3892;47.794;19.126;2023-05-24T12:34:31;29.60;42.30
7700;DHT22;3892;47.794;19.126;2023-05-24T12:36:59;29.50;42.10
7700;DHT22;3892;47.794;19.126;2023-05-24T12:39:28;29.50;42.40
7700;DHT22;3892;47.794;19.126;2023-05-24T12:42:00;29.60;42.40
7700;DHT22;3892;47.794;19.126;2023-05-24T12:44:30;29.50;41.90
7700;DHT22;3892;47.794;19.126;2023-05-24T12:46:59;29.60;42.60
7700;DHT22;3892;47.794;19.126;2023-05-24T12:49:30;29.60;42.30
7700;DHT22;3892;47.794;19.126;2023-05-24T12:51:59;29.60;42.30
7700;DHT22;3892;47.794;19.126;2023-05-24T12:54:27;29.60;41.60
7700;DHT22;3892;47.794;19.126;2023-05-24T12:56:56;29.70;42.20
7700;DHT22;3892;47.794;19.126;2023-05-24T12:59:28;29.70;41.80
7700;DHT22;3892;47.794;19.126;2023-05-24T13:01:56;29.70;41.40
7700;DHT22;3892;47.794;19.126;2023-05-24T13:04:24;29.70;41.30
7700;DHT22;3892;47.794;19.126;2023-05-24T13:06:54;29.70;41.10
7700;DHT22;3892;47.794;19.126;2023-05-24T13:09:22;29.70;41.20
7700;DHT22;3892;47.794;19.126;2023-05-24T13:11:51;29.30;40.70
7700;DHT22;3892;47.794;19.126;2023-05-24T13:14:20;29.50;41.00
7700;DHT22;3892;47.794;19.126;2023-05-24T13:16:48;29.40;41.30
7700;DHT22;3892;47.794;19.126;2023-05-24T13:19:16;29.40;41.30
7700;DHT22;3892;47.794;19.126;2023-05-24T13:21:44;29.40;41.60
7700;DHT22;3892;47.794;19.126;2023-05-24T13:24:14;29.50;41.70
7700;DHT22;3892;47.794;19.126;2023-05-24T13:26:43;29.60;41.50
7700;DHT22;3892;47.794;19.126;2023-05-24T13:29:11;29.70;41.60
7700;DHT22;3892;47.794;19.126;2023-05-24T13:31:42;29.70;41.60
7700;DHT22;3892;47.794;19.126;2023-05-24T13:34:10;29.80;41.50
7700;DHT22;3892;47.794;19.126;2023-05-24T13:36:38;29.90;41.40
7700;DHT22;3892;47.794;19.126;2023-05-24T13:39:07;29.80;41.40
7700;DHT22;3892;47.794;19.126;2023-05-24T13:41:42;29.80;40.60
7700;DHT22;3892;47.794;19.126;2023-05-24T13:44:10;29.80;40.80
7700;DHT22;3892;47.794;19.126;2023-05-24T13:46:39;29.90;41.00
7700;DHT22;3892;47.794;19.126;2023-05-24T13:49:07;29.80;40.70
7700;DHT22;3892;47.794;19.126;2023-05-24T13:51:37;29.90;40.90
7700;DHT22;3892;47.794;19.126;2023-05-24T13:54:05;29.80;40.40
7700;DHT22;3892;47.794;19.126;2023-05-24T13:56:34;29.90;40.60
7700;DHT22;3892;47.794;19.126;2023-05-24T13:59:05;30.00;40.80
7700;DHT22;3892;47.794;19.126;2023-05-24T14:01:33;30.00;41.00
7700;DHT22;3892;47.794;19.126;2023-05-24T14:04:04;29.90;40.20
7700;DHT22;3892;47.794;19.126;2023-05-24T14:06:33;30.00;40.70
7700;DHT22;3892;47.794;19.126;2023-05-24T14:09:03;30.00;40.60
7700;DHT22;3892;47.794;19.126;2023-05-24T14:11:34;30.00;41.30
7700;DHT22;3892;47.794;19.126;2023-05-24T14:14:03;30.00;41.10
7700;DHT22;3892;47.794;19.126;2023-05-24T14:16:34;30.10;41.20
7700;DHT22;3892;47.794;19.126;2023-05-24T14:19:03;30.10;40.60
7700;DHT22;3892;47.794;19.126;2023-05-24T14:21:31;30.10;40.30
7700;DHT22;3892;47.794;19.126;2023-05-24T14:23:59;30.10;41.00
7700;DHT22;3892;47.794;19.126;2023-05-24T14:26:27;30.20;40.80
7700;DHT22;3892;47.794;19.126;2023-05-24T14:28:55;30.10;40.60
7700;DHT22;3892;47.794;19.126;2023-05-24T14:31:25;30.10;39.90
7700;DHT22;3892;47.794;19.126;2023-05-24T14:33:54;30.10;40.50
7700;DHT22;3892;47.794;19.126;2023-05-24T14:36:22;30.20;40.20
7700;DHT22;3892;47.794;19.126;2023-05-24T14:38:50;30.20;40.70
7700;DHT22;3892;47.794;19.126;2023-05-24T14:41:18;30.20;40.80
7700;DHT22;3892;47.794;19.126;2023-05-24T14:43:46;30.10;40.00
7700;DHT22;3892;47.794;19.126;2023-05-24T14:46:14;30.20;41.20
7700;DHT22;3892;47.794;19.126;2023-05-24T14:48:43;30.20;40.30
7700;DHT22;3892;47.794;19.126;2023-05-24T14:51:12;30.20;40.10
7700;DHT22;3892;47.794;19.126;2023-05-24T14:53:40;30.20;39.70
7700;DHT22;3892;47.794;19.126;2023-05-24T14:56:08;30.10;39.60
7700;DHT22;3892;47.794;19.126;2023-05-24T14:58:36;30.10;39.90
7700;DHT22;3892;47.794;19.126;2023-05-24T15:01:04;30.00;39.30
7700;DHT22;3892;47.794;19.126;2023-05-24T15:03:33;29.80;39.50
7700;DHT22;3892;47.794;19.126;2023-05-24T15:06:03;29.80;39.80
7700;DHT22;3892;47.794;19.126;2023-05-24T15:08:32;29.70;39.70
7700;DHT22;3892;47.794;19.126;2023-05-24T15:11:01;29.70;39.70
7700;DHT22;3892;47.794;19.126;2023-05-24T15:13:29;29.70;40.30
7700;DHT22;3892;47.794;19.126;2023-05-24T15:15:57;29.70;40.30
7700;DHT22;3892;47.794;19.126;2023-05-24T15:18:26;29.80;40.30
7700;DHT22;3892;47.794;19.126;2023-05-24T15:20:54;29.80;40.20
7700;DHT22;3892;47.794;19.126;2023-05-24T15:23:25;29.80;40.60
7700;DHT22;3892;47.794;19.126;2023-05-24T15:25:54;30.00;40.70
7700;DHT22;3892;47.794;19.126;2023-05-24T15:28:22;30.00;40.10
7700;DHT22;3892;47.794;19.126;2023-05-24T15:30:51;30.10;39.80
7700;DHT22;3892;47.794;19.126;2023-05-24T15:33:21;30.10;39.40
7700;DHT22;3892;47.794;19.126;2023-05-24T15:35:50;30.20;39.70
7700;DHT22;3892;47.794;19.126;2023-05-24T15:38:18;30.20;39.70
7700;DHT22;3892;47.794;19.126;2023-05-24T15:40:47;30.20;39.90
7700;DHT22;3892;47.794;19.126;2023-05-24T15:43:17;30.20;40.20
7700;DHT22;3892;47.794;19.126;2023-05-24T15:45:45;30.30;39.90
7700;DHT22;3892;47.794;19.126;2023-05-24T15:48:14;30.20;40.00
7700;DHT22;3892;47.794;19.126;2023-05-24T15:50:42;30.20;39.70
7700;DHT22;3892;47.794;19.126;2023-05-24T15:53:23;30.20;39.90
7700;DHT22;3892;47.794;19.126;2023-05-24T15:55:53;30.10;39.50
7700;DHT22;3892;47.794;19.126;2023-05-24T15:58:23;30.00;39.60
7700;DHT22;3892;47.794;19.126;2023-05-24T16:00:51;30.00;39.70